Prospect Creek, Prospect Cree, AK

1:21 AM AKDT on July 27, 2016 (GMT -0800)
Bettles | | Change Station

Elev 643 ft 66.91 °N, 151.53 °W | Updated 28 minutes ago

Overcast
Overcast
61 °F
Feels Like 61 °F
N
4
Wind Variable Wind from SSE

Today
High -- | Low -- °F
--% Chance of Precip.
Yesterday
High -- | Low -- °F
Precip. -- in
Pressure 29.78 in
Visibility 10.0 miles
Clouds Few 6000 ft
Scattered Clouds 9500 ft
Overcast 12000 ft
Dew Point 48 °F
Humidity 62%
Rainfall 0.00 in
Snow Depth Not available.
4:18 AM 11:55 PM
Last Quarter, 45% visible
METAR PABT 270853Z 16003KT 10SM FEW060 SCT095 OVC120 16/09 A2976 RMK AO2 SLP083 FU DSNT W-NW T01610089 402440056 51009
Pressure 29.78 in
Visibility 10.0 miles
Clouds Few 6000 ft
Scattered Clouds 9500 ft
Overcast 12000 ft
Dew Point 48 °F
Humidity 62%
Rainfall 0.00 in
Snow Depth Not available.
4:18 AM 11:55 PM
Last Quarter, 45% visible
METAR PABT 270853Z 16003KT 10SM FEW060 SCT095 OVC120 16/09 A2976 RMK AO2 SLP083 FU DSNT W-NW T01610089 402440056 51009

10-Day Weather Forecast

Almanac

Astronomy

Jul. 27, 2016 Rise Set
Actual Time
Civil Twilight
Nautical Twilight
Astronomical Twilight
Moon
Length of Visible Light
Length of Day
Tomorrow will be .
, % of the Moon is Illuminated

Today's Extremes

State Highs State Lows

Community

WunderPhotos

Upload Photos

1,927,818 photos uploaded!

WunderBlog® & News

Nearby

Air Quality

  Air Quality AQ Index Pollutant
Not available.

Snow Depth

Station Depth Elevation

Earthquake Activity

City Distance Mag. Time & Date
Minimum magnitude displayed is 2.5.

Coastal Water Temperatures

Place Temperature

Stations

Nearby Weather Stations

Station Location Temp. Windchill Dew Point Humidity Wind Precip. Elev Updated Type
                   

Watches & Warnings

There are currently no watches in effect.